createdAt,value
2023-02-07T00:00:50.051Z,8.90
2023-02-07T00:05:57.309Z,7.50
2023-02-07T00:11:10.526Z,7.80
2023-02-07T00:16:19.653Z,7.50
2023-02-07T00:21:28.101Z,8.30
2023-02-07T00:26:35.709Z,8.10
2023-02-07T00:31:43.202Z,7.90
2023-02-07T00:36:50.937Z,7.20
2023-02-07T00:41:58.329Z,6.90
2023-02-07T00:47:05.768Z,6.40
2023-02-07T00:52:13.342Z,5.80
2023-02-07T00:57:21.150Z,5.70
2023-02-07T01:02:28.683Z,4.90
2023-02-07T01:07:36.942Z,4.40
2023-02-07T01:12:44.412Z,5.20
2023-02-07T01:17:52.250Z,5.00
2023-02-07T01:22:59.830Z,5.20
2023-02-07T01:28:08.066Z,5.10
2023-02-07T01:33:16.061Z,4.60
2023-02-07T01:38:23.850Z,4.70
2023-02-07T01:43:31.849Z,4.50
2023-02-07T01:48:40.770Z,4.40
2023-02-07T01:53:48.840Z,5.60
2023-02-07T01:58:57.015Z,4.40
2023-02-07T02:04:04.508Z,4.70
2023-02-07T02:09:15.792Z,4.50
2023-02-07T02:14:35.929Z,5.20
2023-02-07T02:20:39.739Z,3.80
2023-02-07T02:26:26.499Z,4.50
2023-02-07T02:32:12.090Z,4.50
2023-02-07T02:37:27.190Z,5.70
2023-02-07T02:42:41.970Z,5.10
2023-02-07T02:47:51.770Z,5.30
2023-02-07T02:52:59.569Z,5.20
2023-02-07T02:58:21.810Z,4.10
2023-02-07T03:03:50.281Z,5.20
2023-02-07T03:09:06.325Z,4.60
2023-02-07T03:14:22.347Z,5.10
2023-02-07T03:19:35.172Z,4.90
2023-02-07T03:24:46.860Z,4.30
2023-02-07T03:35:11.866Z,4.70
2023-02-07T03:40:20.804Z,4.20
2023-02-07T03:45:28.548Z,4.80
2023-02-07T03:50:36.067Z,5.50
2023-02-07T03:55:43.347Z,5.60
2023-02-07T04:00:50.856Z,4.20
2023-02-07T04:05:58.122Z,4.70
2023-02-07T04:11:06.766Z,4.10
2023-02-07T04:16:14.284Z,5.30
2023-02-07T04:21:21.880Z,4.50
2023-02-07T04:26:29.183Z,4.60
2023-02-07T04:31:38.045Z,4.60
2023-02-07T04:36:45.602Z,4.20
2023-02-07T04:41:53.192Z,4.50
2023-02-07T04:47:00.698Z,4.20
2023-02-07T04:52:08.375Z,5.30
2023-02-07T04:57:15.662Z,3.50
2023-02-07T05:02:23.152Z,4.40
2023-02-07T05:07:30.605Z,4.90
2023-02-07T05:12:38.086Z,4.60
2023-02-07T05:17:45.567Z,4.70
2023-02-07T05:22:53.233Z,4.10
2023-02-07T05:28:00.514Z,3.90
2023-02-07T05:33:08.817Z,4.00
2023-02-07T05:38:17.803Z,3.30
2023-02-07T05:43:25.357Z,3.40
2023-02-07T05:48:33.081Z,3.30
2023-02-07T05:53:40.986Z,3.60
2023-02-07T05:58:48.240Z,3.60
2023-02-07T06:03:55.600Z,3.80
2023-02-07T06:09:02.935Z,2.90
2023-02-07T06:14:10.723Z,4.20
2023-02-07T06:19:18.973Z,3.70
2023-02-07T06:24:26.355Z,4.10
2023-02-07T06:29:33.953Z,3.40
2023-02-07T06:34:41.487Z,3.40
2023-02-07T06:39:54.611Z,3.50
2023-02-07T06:45:02.222Z,4.00
2023-02-07T06:50:10.646Z,3.80
2023-02-07T06:55:18.054Z,3.50
2023-02-07T07:00:26.657Z,2.90
2023-02-07T07:05:35.107Z,3.70
2023-02-07T07:10:42.647Z,3.50
2023-02-07T07:15:50.173Z,3.70
2023-02-07T07:20:59.135Z,3.90
2023-02-07T07:26:06.665Z,5.20
2023-02-07T07:31:15.591Z,5.60
2023-02-07T07:36:23.467Z,4.80
2023-02-07T07:41:31.380Z,4.70
2023-02-07T07:46:38.976Z,3.90
2023-02-07T07:51:47.241Z,3.70
2023-02-07T07:56:54.776Z,4.20
2023-02-07T08:02:02.194Z,3.50
2023-02-07T08:07:09.693Z,3.80
2023-02-07T08:12:16.912Z,3.80
2023-02-07T08:17:24.362Z,4.80
2023-02-07T08:22:31.803Z,3.80
2023-02-07T08:27:39.374Z,4.40
2023-02-07T08:32:47.120Z,4.30
2023-02-07T08:37:54.644Z,4.90
2023-02-07T08:43:02.884Z,6.40
2023-02-07T08:48:10.682Z,5.20
2023-02-07T08:53:18.887Z,7.20
2023-02-07T08:58:26.450Z,6.10
2023-02-07T09:03:33.917Z,5.50
2023-02-07T09:08:41.322Z,4.60
2023-02-07T09:13:49.635Z,5.00
2023-02-07T09:18:57.092Z,5.10
2023-02-07T09:24:04.291Z,5.90
2023-02-07T09:29:14.006Z,4.80
2023-02-07T09:34:21.439Z,4.20
2023-02-07T09:39:29.083Z,3.70
2023-02-07T09:44:51.617Z,3.90
2023-02-07T09:55:08.262Z,3.90
2023-02-07T10:00:25.795Z,4.50
2023-02-07T10:05:42.578Z,4.70
2023-02-07T10:10:55.258Z,4.40
2023-02-07T10:16:19.097Z,4.70
2023-02-07T10:21:33.208Z,4.80
2023-02-07T10:26:45.411Z,4.90
2023-02-07T10:37:02.451Z,5.80
2023-02-07T10:42:16.450Z,14.20
2023-02-07T10:47:26.692Z,9.00
2023-02-07T10:52:39.646Z,7.20
2023-02-07T10:58:02.822Z,6.30
2023-02-07T11:03:21.043Z,8.40
2023-02-07T11:08:31.116Z,6.00
2023-02-07T11:13:50.451Z,5.00
2023-02-07T11:19:01.242Z,3.80
2023-02-07T11:24:15.765Z,7.10
2023-02-07T11:29:24.726Z,5.90
2023-02-07T11:34:50.044Z,6.60
2023-02-07T11:39:58.587Z,4.90
2023-02-07T11:45:15.713Z,9.90
2023-02-07T11:50:28.105Z,7.60
2023-02-07T11:55:41.403Z,7.60
2023-02-07T12:00:49.787Z,7.80
2023-02-07T12:05:59.193Z,5.80
2023-02-07T12:11:13.311Z,5.40
2023-02-07T12:16:24.968Z,7.30
2023-02-07T12:21:38.022Z,6.10
2023-02-07T12:26:50.193Z,6.00
2023-02-07T12:32:07.528Z,5.90
2023-02-07T12:37:22.334Z,4.80
2023-02-07T12:42:36.586Z,8.00
2023-02-07T12:47:51.505Z,6.50
2023-02-07T12:53:12.018Z,4.90
2023-02-07T12:58:38.403Z,4.20
2023-02-07T13:04:13.410Z,4.00
2023-02-07T13:09:28.326Z,3.70
2023-02-07T13:15:02.640Z,4.10
2023-02-07T13:20:24.781Z,4.40
2023-02-07T13:25:36.977Z,4.80
2023-02-07T13:35:51.443Z,2.30
2023-02-07T13:41:07.285Z,2.30
2023-02-07T13:46:41.547Z,2.50
2023-02-07T13:51:58.407Z,2.90
2023-02-07T13:57:24.222Z,2.70
2023-02-07T14:02:33.432Z,5.20
2023-02-07T14:07:42.130Z,3.20
2023-02-07T14:12:54.423Z,2.40
2023-02-07T14:23:18.041Z,2.50
2023-02-07T14:28:36.559Z,3.00
2023-02-07T14:33:44.257Z,3.00
2023-02-07T14:39:09.477Z,2.50
2023-02-07T14:44:29.566Z,2.50
2023-02-07T14:49:42.077Z,1.80
2023-02-07T14:54:52.845Z,2.50
2023-02-07T15:00:19.324Z,1.90
2023-02-07T15:05:29.622Z,1.70
2023-02-07T15:10:39.591Z,1.60
2023-02-07T15:15:52.959Z,2.30
2023-02-07T15:21:01.584Z,1.70
2023-02-07T15:26:10.568Z,1.80
2023-02-07T15:31:19.123Z,1.80
2023-02-07T15:36:36.165Z,1.80
2023-02-07T15:41:45.893Z,1.70
2023-02-07T15:46:55.732Z,1.80
2023-02-07T15:52:07.710Z,1.80
2023-02-07T15:57:24.030Z,2.10
2023-02-07T16:02:35.054Z,2.80
2023-02-07T16:07:48.188Z,2.30
2023-02-07T16:13:02.134Z,2.50
2023-02-07T16:18:36.194Z,2.20
2023-02-07T16:23:45.356Z,2.30
2023-02-07T16:28:52.777Z,3.10
2023-02-07T16:34:00.513Z,3.80
2023-02-07T16:39:08.795Z,4.00
2023-02-07T16:44:19.994Z,3.90
2023-02-07T16:49:29.240Z,3.90
2023-02-07T16:54:37.018Z,3.50
2023-02-07T16:59:44.354Z,3.90
2023-02-07T17:04:52.256Z,4.60
2023-02-07T17:10:03.460Z,5.30
2023-02-07T17:15:12.289Z,4.90
2023-02-07T17:20:27.396Z,4.60
2023-02-07T17:25:35.685Z,3.70
2023-02-07T17:30:44.669Z,4.00
2023-02-07T17:35:52.862Z,4.70
2023-02-07T17:41:00.335Z,4.80
2023-02-07T17:46:18.543Z,4.90
2023-02-07T17:51:27.621Z,4.40
2023-02-07T17:56:36.203Z,4.60
2023-02-07T18:01:43.897Z,4.80
2023-02-07T18:06:52.049Z,4.70
2023-02-07T18:12:02.279Z,4.20
2023-02-07T18:17:10.846Z,4.30
2023-02-07T18:22:18.683Z,4.40
2023-02-07T18:27:26.723Z,4.30
2023-02-07T18:32:34.858Z,11.40
2023-02-07T18:37:43.042Z,72.50
2023-02-07T18:42:50.890Z,139.40
2023-02-07T18:47:58.543Z,112.90
2023-02-07T18:53:06.445Z,27.60
2023-02-07T18:58:13.974Z,8.00
2023-02-07T19:03:21.916Z,5.70
2023-02-07T19:08:30.359Z,4.60
2023-02-07T19:13:38.605Z,5.70
2023-02-07T19:18:46.633Z,5.60
2023-02-07T19:23:54.509Z,5.00
2023-02-07T19:29:05.677Z,5.20
2023-02-07T19:34:14.643Z,5.20
2023-02-07T19:39:22.092Z,5.00
2023-02-07T19:44:29.555Z,5.00
2023-02-07T19:49:37.253Z,4.90
2023-02-07T19:54:45.616Z,5.30
2023-02-07T19:59:53.031Z,5.00
2023-02-07T20:05:01.094Z,5.90
2023-02-07T20:10:11.020Z,6.00
2023-02-07T20:15:19.038Z,6.20
2023-02-07T20:20:26.665Z,6.80
2023-02-07T20:25:36.111Z,7.20
2023-02-07T20:30:47.475Z,6.00
2023-02-07T20:35:55.032Z,6.70
2023-02-07T20:41:09.422Z,6.50
2023-02-07T20:46:17.717Z,7.40
2023-02-07T20:51:25.400Z,6.40
2023-02-07T20:56:33.771Z,7.20
2023-02-07T21:01:41.783Z,6.50
2023-02-07T21:06:50.924Z,7.50
2023-02-07T21:11:59.392Z,6.20
2023-02-07T21:17:08.030Z,6.50
2023-02-07T21:22:16.997Z,6.60
2023-02-07T21:27:24.620Z,6.00
2023-02-07T21:32:32.060Z,6.10
2023-02-07T21:37:40.147Z,5.20
2023-02-07T21:42:48.172Z,5.80
2023-02-07T21:47:56.269Z,6.20
2023-02-07T21:53:04.082Z,6.90
2023-02-07T21:58:11.516Z,6.60
2023-02-07T22:03:19.480Z,7.80
2023-02-07T22:08:27.192Z,11.50
2023-02-07T22:13:36.507Z,10.70
2023-02-07T22:18:44.597Z,7.60
2023-02-07T22:23:52.641Z,7.80
2023-02-07T22:29:00.670Z,8.80
2023-02-07T22:34:10.330Z,8.40
2023-02-07T22:39:19.478Z,7.90
2023-02-07T22:44:27.187Z,8.70
2023-02-07T22:49:36.221Z,8.40
2023-02-07T22:54:45.337Z,8.60
2023-02-07T22:59:53.673Z,8.50
2023-02-07T23:05:01.298Z,8.90
2023-02-07T23:10:10.424Z,7.50
2023-02-07T23:15:18.190Z,8.20
2023-02-07T23:20:26.058Z,8.40
2023-02-07T23:25:33.835Z,8.20
2023-02-07T23:30:42.384Z,8.10
2023-02-07T23:35:50.468Z,8.00
2023-02-07T23:40:58.571Z,9.40
2023-02-07T23:46:07.085Z,9.50
2023-02-07T23:51:16.874Z,9.70
2023-02-07T23:56:26.396Z,10.70
